FCBB/BZV METAR and TAF weather

Enter ICAO airport designator
Station Type Date Time Source
FCBB METAR 2019/02/23 02:00 UTC NOAA

FCBB 230200Z 24002KT 9000 NSC 22/21 Q1013 NOSIG


Station Type Date Time Source
FCBB Decoded METAR 2019/02/23 02:00 UTC NOAA

Brazzaville / Maya-Maya, Congo, Republic of the (FCBB) 04-15S 015-15E 316M
Feb 22, 2019 - 09:00 PM EST / 2019.02.23 0200 UTC
Wind: from the WSW (240 degrees) at 2 MPH (2 KT):0
Visibility: 5 mile(s):0
Temperature: 71 F (22 C)
Dew Point: 69 F (21 C)
Relative Humidity: 94%
Pressure (altimeter): 29.91 in. Hg (1013 hPa)
ob: FCBB 230200Z 24002KT 9000 NSC 22/21 Q1013 NOSIG
cycle: 2

Station Type Date Time Source
FCBB TAF 2019/02/22 18:42 UTC NOAA

TAF TAF FCBB 221700Z 2218/2324 25004KT 9999 SCT020
BECMG 2312/2314 SCT023 FEW030CB PROB40 2317/2321 TS


Example: see airport list